createdAt,value
2023-02-28T00:00:49.758Z,6.50
2023-02-28T00:03:17.579Z,7.57
2023-02-28T00:05:48.253Z,8.68
2023-02-28T00:08:19.418Z,5.82
2023-02-28T00:10:51.369Z,3.28
2023-02-28T00:13:27.715Z,3.40
2023-02-28T00:16:06.923Z,3.85
2023-02-28T00:18:35.142Z,3.42
2023-02-28T00:21:14.387Z,4.03
2023-02-28T00:23:49.274Z,4.40
2023-02-28T00:26:23.477Z,2.60
2023-02-28T00:28:53.037Z,3.58
2023-02-28T00:31:19.725Z,5.07
2023-02-28T00:33:52.066Z,5.07
2023-02-28T00:36:25.515Z,2.35
2023-02-28T00:38:53.042Z,8.50
2023-02-28T00:41:26.590Z,5.72
2023-02-28T00:43:57.710Z,7.93
2023-02-28T00:46:32.131Z,6.57
2023-02-28T00:48:58.914Z,4.90
2023-02-28T00:51:25.505Z,5.07
2023-02-28T00:53:52.352Z,4.22
2023-02-28T00:56:19.290Z,4.35
2023-02-28T00:58:50.311Z,3.75
2023-02-28T01:01:17.208Z,3.65
2023-02-28T01:03:44.736Z,7.43
2023-02-28T01:06:13.164Z,5.10
2023-02-28T01:08:43.447Z,5.43
2023-02-28T01:11:16.942Z,6.97
2023-02-28T01:13:46.079Z,5.05
2023-02-28T01:16:40.325Z,3.08
2023-02-28T01:19:07.328Z,4.55
2023-02-28T01:21:41.791Z,3.40
2023-02-28T01:24:18.493Z,6.45
2023-02-28T01:26:45.441Z,3.00
2023-02-28T01:29:15.634Z,8.35
2023-02-28T01:31:42.358Z,3.50
2023-02-28T01:34:11.184Z,5.15
2023-02-28T01:36:48.702Z,3.60
2023-02-28T01:39:15.588Z,3.17
2023-02-28T01:41:43.352Z,4.15
2023-02-28T01:44:47.402Z,3.75
2023-02-28T01:47:17.337Z,3.58
2023-02-28T01:49:45.253Z,4.22
2023-02-28T01:52:18.163Z,5.53
2023-02-28T01:54:54.956Z,4.00
2023-02-28T01:57:31.516Z,6.53
2023-02-28T02:00:05.111Z,3.92
2023-02-28T02:02:42.134Z,6.47
2023-02-28T02:05:21.764Z,4.75
2023-02-28T02:08:04.099Z,3.33
2023-02-28T02:10:36.709Z,6.05
2023-02-28T02:13:06.069Z,4.70
2023-02-28T02:15:40.613Z,3.38
2023-02-28T02:18:23.850Z,4.68
2023-02-28T02:21:18.875Z,4.15
2023-02-28T02:24:07.552Z,3.78
2023-02-28T02:27:00.480Z,4.53
2023-02-28T02:29:39.654Z,4.00
2023-02-28T02:32:35.923Z,6.90
2023-02-28T02:35:27.760Z,5.63
2023-02-28T02:38:10.178Z,4.20
2023-02-28T02:40:46.266Z,5.57
2023-02-28T02:43:46.032Z,3.22
2023-02-28T02:46:24.863Z,7.60
2023-02-28T02:48:56.186Z,5.93
2023-02-28T02:51:42.786Z,5.80
2023-02-28T02:54:18.877Z,4.15
2023-02-28T02:56:50.699Z,7.10
2023-02-28T02:59:29.032Z,4.50
2023-02-28T03:02:01.998Z,4.35
2023-02-28T03:04:38.113Z,6.13
2023-02-28T03:07:37.679Z,5.82
2023-02-28T03:10:37.064Z,5.38
2023-02-28T03:22:18.643Z,4.80
2023-02-28T03:24:58.412Z,7.60
2023-02-28T03:27:30.055Z,3.78
2023-02-28T03:30:20.050Z,4.25
2023-02-28T03:33:09.293Z,5.13
2023-02-28T03:35:41.948Z,6.70
2023-02-28T03:38:21.790Z,7.50
2023-02-28T03:40:59.102Z,7.05
2023-02-28T03:43:32.877Z,3.95
2023-02-28T03:46:02.601Z,4.45
2023-02-28T03:48:37.968Z,6.05
2023-02-28T03:51:09.043Z,7.35
2023-02-28T03:53:42.718Z,5.38
2023-02-28T03:56:39.724Z,8.95
2023-02-28T03:59:16.363Z,6.40
2023-02-28T04:01:49.506Z,6.10
2023-02-28T04:04:18.097Z,7.35
2023-02-28T04:06:47.760Z,5.25
2023-02-28T04:09:15.198Z,4.47
2023-02-28T04:11:58.750Z,5.57
2023-02-28T04:14:25.607Z,6.13
2023-02-28T04:16:52.725Z,4.68
2023-02-28T04:19:19.961Z,5.25
2023-02-28T04:22:02.144Z,8.65
2023-02-28T04:24:31.364Z,9.13
2023-02-28T04:26:58.986Z,8.50
2023-02-28T04:29:29.408Z,6.05
2023-02-28T04:32:02.683Z,6.53
2023-02-28T04:34:33.168Z,4.25
2023-02-28T04:37:13.306Z,4.88
2023-02-28T04:39:50.528Z,5.05
2023-02-28T04:42:17.671Z,7.28
2023-02-28T04:44:47.405Z,7.07
2023-02-28T04:47:20.348Z,4.65
2023-02-28T04:49:51.374Z,7.15
2023-02-28T04:52:18.309Z,4.47
2023-02-28T04:57:48.613Z,5.72
2023-02-28T05:00:16.965Z,5.53
2023-02-28T05:02:47.878Z,5.57
2023-02-28T05:05:24.872Z,7.18
2023-02-28T05:07:53.818Z,5.63
2023-02-28T05:10:22.730Z,8.25
2023-02-28T05:12:49.884Z,9.30
2023-02-28T05:15:19.564Z,6.85
2023-02-28T05:17:46.522Z,5.45
2023-02-28T05:20:16.841Z,6.72
2023-02-28T05:22:47.815Z,6.20
2023-02-28T05:25:27.014Z,6.95
2023-02-28T05:27:53.965Z,7.20
2023-02-28T05:30:21.568Z,7.05
2023-02-28T05:33:42.029Z,7.50
2023-02-28T05:36:14.464Z,5.65
2023-02-28T05:38:41.378Z,6.68
2023-02-28T05:41:11.746Z,7.85
2023-02-28T05:43:38.861Z,11.15
2023-02-28T05:46:07.627Z,6.10
2023-02-28T05:48:36.071Z,5.68
2023-02-28T05:51:03.949Z,6.30
2023-02-28T05:53:30.971Z,7.80
2023-02-28T05:55:59.669Z,8.35
2023-02-28T05:58:30.995Z,6.78
2023-02-28T06:01:01.565Z,6.55
2023-02-28T06:03:30.571Z,7.78
2023-02-28T06:05:58.104Z,6.30
2023-02-28T06:08:37.041Z,8.02
2023-02-28T06:11:07.825Z,6.32
2023-02-28T06:13:37.780Z,9.77
2023-02-28T06:16:07.311Z,9.77
2023-02-28T06:18:34.145Z,6.30
2023-02-28T06:21:01.106Z,6.20
2023-02-28T06:23:27.787Z,9.20
2023-02-28T06:25:57.947Z,7.10
2023-02-28T06:28:41.369Z,8.55
2023-02-28T06:31:13.052Z,7.38
2023-02-28T06:34:08.182Z,9.10
2023-02-28T06:36:37.158Z,8.60
2023-02-28T06:39:06.981Z,7.47
2023-02-28T06:41:53.214Z,9.10
2023-02-28T06:44:22.114Z,9.05
2023-02-28T06:46:51.388Z,15.00
2023-02-28T07:01:08.131Z,8.25
2023-02-28T07:03:37.838Z,6.85
2023-02-28T07:06:06.521Z,9.93
2023-02-28T07:08:35.570Z,10.10
2023-02-28T07:11:09.188Z,7.30
2023-02-28T07:13:36.591Z,9.55
2023-02-28T07:16:09.192Z,7.10
2023-02-28T07:21:08.451Z,6.88
2023-02-28T07:23:35.989Z,6.75
2023-02-28T07:26:02.920Z,7.82
2023-02-28T07:28:30.053Z,8.77
2023-02-28T07:31:03.290Z,9.43
2023-02-28T07:33:29.957Z,7.05
2023-02-28T07:36:08.444Z,11.65
2023-02-28T07:38:37.770Z,9.20
2023-02-28T07:41:04.891Z,6.45
2023-02-28T07:43:34.271Z,7.90
2023-02-28T07:46:06.430Z,6.93
2023-02-28T07:48:33.619Z,8.13
2023-02-28T07:51:00.782Z,6.85
2023-02-28T07:53:28.668Z,7.22
2023-02-28T07:55:57.088Z,8.75
2023-02-28T07:58:24.787Z,7.78
2023-02-28T08:00:52.045Z,11.23
2023-02-28T08:03:20.764Z,7.65
2023-02-28T08:05:49.255Z,7.78
2023-02-28T08:08:17.226Z,7.38
2023-02-28T08:10:50.701Z,7.30
2023-02-28T08:13:19.363Z,11.45
2023-02-28T08:15:47.846Z,11.13
2023-02-28T08:18:14.573Z,8.45
2023-02-28T08:20:43.392Z,11.57
2023-02-28T08:23:10.115Z,8.95
2023-02-28T08:25:36.984Z,6.93
2023-02-28T08:28:03.965Z,10.20
2023-02-28T08:30:30.585Z,11.15
2023-02-28T08:32:57.541Z,9.20
2023-02-28T08:35:42.504Z,10.15
2023-02-28T08:38:09.222Z,10.02
2023-02-28T08:40:36.297Z,21.52
2023-02-28T08:43:05.609Z,15.98
2023-02-28T08:45:34.805Z,11.05
2023-02-28T08:48:03.626Z,11.38
2023-02-28T08:50:32.650Z,11.70
2023-02-28T08:53:00.170Z,8.50
2023-02-28T08:55:29.325Z,8.73
2023-02-28T08:57:56.409Z,8.55
2023-02-28T09:00:31.110Z,13.27
2023-02-28T09:03:02.400Z,8.35
2023-02-28T09:05:31.723Z,9.00
2023-02-28T09:08:00.954Z,10.35
2023-02-28T09:10:29.240Z,14.57
2023-02-28T09:12:57.294Z,10.10
2023-02-28T09:15:26.560Z,10.35
2023-02-28T09:17:53.198Z,9.93
2023-02-28T09:20:24.944Z,13.32
2023-02-28T09:22:53.812Z,8.77
2023-02-28T09:25:24.006Z,13.70
2023-02-28T09:27:50.885Z,15.07
2023-02-28T09:30:18.039Z,10.60
2023-02-28T09:33:09.502Z,8.45
2023-02-28T09:35:37.736Z,12.55
2023-02-28T09:38:05.095Z,11.27
2023-02-28T09:40:44.649Z,14.60
2023-02-28T09:43:17.913Z,8.40
2023-02-28T09:45:51.935Z,15.70
2023-02-28T09:48:23.749Z,10.27
2023-02-28T09:50:53.835Z,11.17
2023-02-28T09:53:23.139Z,13.02
2023-02-28T09:55:58.578Z,9.15
2023-02-28T09:58:45.349Z,10.55
2023-02-28T10:01:21.978Z,9.43
2023-02-28T10:04:11.195Z,13.18
2023-02-28T10:06:49.396Z,8.13
2023-02-28T10:09:27.153Z,11.25
2023-02-28T10:12:00.676Z,20.20
2023-02-28T10:14:34.172Z,15.10
2023-02-28T10:17:20.556Z,10.20
2023-02-28T10:19:52.487Z,14.18
2023-02-28T10:22:34.692Z,9.98
2023-02-28T10:25:06.807Z,11.57
2023-02-28T10:27:36.977Z,10.80
2023-02-28T10:30:09.779Z,9.48
2023-02-28T10:35:12.105Z,13.18
2023-02-28T10:37:42.928Z,9.93
2023-02-28T10:40:38.400Z,9.18
2023-02-28T10:43:13.267Z,11.68
2023-02-28T10:45:53.426Z,11.90
2023-02-28T10:48:20.462Z,7.78
2023-02-28T10:50:50.240Z,8.13
2023-02-28T10:53:26.404Z,11.15
2023-02-28T10:56:11.363Z,9.90
2023-02-28T10:59:03.882Z,10.43
2023-02-28T11:01:31.971Z,10.60
2023-02-28T11:03:59.511Z,10.05
2023-02-28T11:06:34.664Z,12.88
2023-02-28T11:09:35.158Z,12.63
2023-02-28T11:12:07.478Z,9.60
2023-02-28T11:14:48.389Z,15.73
2023-02-28T11:17:26.597Z,9.90
2023-02-28T11:20:04.525Z,13.82
2023-02-28T11:22:54.070Z,10.35
2023-02-28T11:25:25.299Z,13.05
2023-02-28T11:27:56.294Z,12.48
2023-02-28T11:30:31.037Z,11.63
2023-02-28T11:32:58.206Z,12.10
2023-02-28T11:35:38.428Z,13.80
2023-02-28T11:38:14.660Z,9.85
2023-02-28T11:40:50.873Z,10.48
2023-02-28T11:43:29.567Z,9.70
2023-02-28T11:46:28.869Z,13.45
2023-02-28T11:49:38.756Z,12.85
2023-02-28T11:52:29.575Z,13.13
2023-02-28T11:55:04.676Z,10.65
2023-02-28T11:57:56.288Z,13.45
2023-02-28T12:00:40.274Z,14.52
2023-02-28T12:03:39.602Z,15.05
2023-02-28T12:06:18.440Z,8.73
2023-02-28T12:09:22.688Z,13.35
2023-02-28T12:12:10.849Z,13.05
2023-02-28T12:14:49.335Z,11.13
2023-02-28T12:17:21.699Z,11.07
2023-02-28T12:20:10.291Z,10.93
2023-02-28T12:23:03.166Z,11.20
2023-02-28T12:25:45.108Z,11.98
2023-02-28T12:28:23.505Z,13.00
2023-02-28T12:31:04.805Z,10.25
2023-02-28T12:33:46.496Z,10.60
2023-02-28T12:36:21.495Z,11.23
2023-02-28T12:38:50.894Z,11.10
2023-02-28T12:44:33.131Z,12.50
2023-02-28T12:47:09.324Z,12.25
2023-02-28T12:49:48.278Z,11.55
2023-02-28T12:52:20.313Z,12.63
2023-02-28T12:55:07.066Z,13.30
2023-02-28T12:57:44.477Z,13.75
2023-02-28T13:00:14.841Z,13.50
2023-02-28T13:02:41.788Z,11.52
2023-02-28T13:05:37.657Z,12.38
2023-02-28T13:08:04.700Z,10.30
2023-02-28T13:10:57.587Z,9.65
2023-02-28T13:13:29.878Z,9.30
2023-02-28T13:16:18.065Z,13.10
2023-02-28T13:18:49.448Z,13.95
2023-02-28T13:21:43.349Z,11.52
2023-02-28T13:24:30.207Z,10.18
2023-02-28T13:27:00.136Z,11.30
2023-02-28T13:29:40.739Z,12.10
2023-02-28T13:32:10.263Z,10.77
2023-02-28T13:34:51.738Z,11.65
2023-02-28T13:37:19.586Z,12.98
2023-02-28T13:39:51.387Z,10.38
2023-02-28T13:42:36.377Z,11.43
2023-02-28T13:45:08.091Z,12.45
2023-02-28T13:48:02.993Z,13.65
2023-02-28T13:50:32.098Z,15.93
2023-02-28T13:53:14.117Z,10.32
2023-02-28T13:56:05.635Z,14.87
2023-02-28T13:59:00.330Z,13.88
2023-02-28T14:01:51.406Z,12.20
2023-02-28T14:05:01.251Z,12.20
2023-02-28T14:07:45.403Z,13.68
2023-02-28T14:10:30.732Z,16.15
2023-02-28T14:13:14.404Z,12.68
2023-02-28T14:15:49.425Z,10.07
2023-02-28T14:18:26.636Z,12.73
2023-02-28T14:21:21.600Z,10.90
2023-02-28T14:23:58.487Z,15.05
2023-02-28T14:26:32.560Z,13.40
2023-02-28T14:29:13.278Z,15.95
2023-02-28T14:32:11.605Z,14.48
2023-02-28T14:34:42.434Z,9.82
2023-02-28T14:37:16.873Z,12.93
2023-02-28T14:39:46.441Z,14.55
2023-02-28T14:42:47.261Z,15.77
2023-02-28T14:45:23.009Z,11.45
2023-02-28T14:47:51.573Z,18.13
2023-02-28T14:50:21.750Z,10.85
2023-02-28T14:52:53.450Z,13.60
2023-02-28T14:55:25.127Z,12.00
2023-02-28T14:58:07.441Z,12.68
2023-02-28T15:00:48.171Z,13.18
2023-02-28T15:03:45.184Z,12.32
2023-02-28T15:06:18.506Z,11.65
2023-02-28T15:08:46.104Z,16.05
2023-02-28T15:11:22.711Z,12.88
2023-02-28T15:13:59.476Z,12.45
2023-02-28T15:16:40.566Z,12.38
2023-02-28T15:19:20.267Z,11.18
2023-02-28T15:21:54.542Z,12.35
2023-02-28T15:33:30.750Z,13.25
2023-02-28T15:50:31.947Z,13.20
2023-02-28T15:53:03.495Z,18.70
2023-02-28T15:58:25.445Z,14.88
2023-02-28T16:01:25.725Z,16.88
2023-02-28T16:03:56.872Z,12.70
2023-02-28T16:06:41.908Z,12.00
2023-02-28T16:09:15.985Z,13.13
2023-02-28T16:11:48.712Z,11.35
2023-02-28T16:14:38.925Z,11.98
2023-02-28T16:17:14.742Z,13.00
2023-02-28T16:19:41.503Z,13.57
2023-02-28T16:22:09.926Z,13.65
2023-02-28T16:24:46.313Z,14.15
2023-02-28T16:27:30.599Z,11.48
2023-02-28T16:29:57.520Z,17.77
2023-02-28T16:32:24.655Z,15.77
2023-02-28T16:34:54.613Z,13.85
2023-02-28T16:37:21.524Z,16.15
2023-02-28T16:39:51.956Z,15.25
2023-02-28T16:42:27.224Z,24.38
2023-02-28T16:45:03.000Z,18.10
2023-02-28T16:47:55.538Z,115.97
2023-02-28T16:50:33.931Z,31.70
2023-02-28T16:53:01.860Z,15.65
2023-02-28T16:55:28.888Z,13.60
2023-02-28T16:57:58.964Z,25.05
2023-02-28T17:00:27.822Z,17.35
2023-02-28T17:02:56.862Z,15.40
2023-02-28T17:05:32.269Z,14.25
2023-02-28T17:08:04.055Z,14.75
2023-02-28T17:10:33.100Z,14.38
2023-02-28T17:13:14.263Z,25.27
2023-02-28T17:15:46.703Z,12.23
2023-02-28T17:18:16.736Z,17.17
2023-02-28T17:20:43.767Z,15.40
2023-02-28T17:23:10.624Z,15.40
2023-02-28T17:25:39.573Z,14.05
2023-02-28T17:28:06.376Z,19.83
2023-02-28T17:30:35.456Z,15.23
2023-02-28T17:33:13.273Z,13.88
2023-02-28T17:35:40.604Z,16.23
2023-02-28T17:38:26.442Z,16.98
2023-02-28T17:43:58.557Z,16.50
2023-02-28T17:46:29.190Z,15.48
2023-02-28T17:48:56.894Z,19.10
2023-02-28T17:51:25.021Z,14.43
2023-02-28T17:53:55.658Z,15.43
2023-02-28T17:58:56.669Z,17.20
2023-02-28T18:01:26.356Z,21.63
2023-02-28T18:03:56.921Z,20.03
2023-02-28T18:06:50.138Z,29.52
2023-02-28T18:09:42.344Z,18.90
2023-02-28T18:12:09.116Z,12.93
2023-02-28T18:14:36.752Z,14.95
2023-02-28T18:17:04.471Z,14.48
2023-02-28T18:19:34.577Z,17.63
2023-02-28T18:22:03.136Z,25.55
2023-02-28T18:24:36.947Z,14.35
2023-02-28T18:27:06.761Z,15.65
2023-02-28T18:29:33.728Z,17.13
2023-02-28T18:32:06.450Z,14.77
2023-02-28T18:34:35.347Z,19.30
2023-02-28T18:37:07.061Z,15.30
2023-02-28T18:39:34.523Z,13.90
2023-02-28T18:42:01.393Z,15.85
2023-02-28T18:44:31.699Z,29.55
2023-02-28T18:47:03.297Z,23.75
2023-02-28T18:49:35.039Z,35.55
2023-02-28T18:52:04.863Z,19.92
2023-02-28T18:54:31.966Z,18.13
2023-02-28T18:57:03.969Z,19.88
2023-02-28T18:59:31.642Z,29.85
2023-02-28T19:01:58.436Z,34.13
2023-02-28T19:04:25.347Z,28.30
2023-02-28T19:06:55.173Z,21.50
2023-02-28T19:09:24.369Z,17.90
2023-02-28T19:11:53.975Z,15.90
2023-02-28T19:14:21.285Z,16.20
2023-02-28T19:16:49.398Z,15.23
2023-02-28T19:19:23.039Z,14.68
2023-02-28T19:21:51.474Z,16.92
2023-02-28T19:24:21.105Z,17.73
2023-02-28T19:29:17.476Z,19.10
2023-02-28T19:31:45.273Z,31.67
2023-02-28T19:34:12.033Z,32.90
2023-02-28T19:36:39.856Z,32.88
2023-02-28T19:39:06.578Z,28.77
2023-02-28T19:41:33.284Z,28.98
2023-02-28T19:44:02.332Z,25.30
2023-02-28T19:46:29.129Z,32.50
2023-02-28T19:48:57.840Z,38.22
2023-02-28T19:51:46.683Z,44.53
2023-02-28T19:54:15.540Z,33.78
2023-02-28T19:56:42.141Z,31.23
2023-02-28T19:59:21.065Z,28.92
2023-02-28T20:01:57.013Z,27.55
2023-02-28T20:04:30.234Z,24.90
2023-02-28T20:07:02.454Z,24.15
2023-02-28T20:09:34.045Z,26.70
2023-02-28T20:12:11.700Z,29.17
2023-02-28T20:14:52.148Z,29.33
2023-02-28T20:17:23.417Z,33.53
2023-02-28T20:19:50.800Z,40.75
2023-02-28T20:22:19.788Z,39.92
2023-02-28T20:24:47.584Z,33.20
2023-02-28T20:27:14.958Z,36.22
2023-02-28T20:29:41.746Z,34.35
2023-02-28T20:32:13.170Z,30.15
2023-02-28T20:34:40.779Z,29.77
2023-02-28T20:37:14.081Z,33.47
2023-02-28T20:39:43.048Z,36.97
2023-02-28T20:42:09.684Z,31.40
2023-02-28T20:44:36.775Z,32.72
2023-02-28T20:47:05.672Z,30.20
2023-02-28T20:49:34.945Z,30.48
2023-02-28T20:52:02.494Z,30.52
2023-02-28T20:54:35.334Z,29.25
2023-02-28T20:57:03.189Z,30.50
2023-02-28T20:59:31.140Z,30.67
2023-02-28T21:01:58.816Z,25.30
2023-02-28T21:04:29.984Z,24.25
2023-02-28T21:06:56.647Z,23.05
2023-02-28T21:09:24.649Z,24.23
2023-02-28T21:11:53.846Z,20.88
2023-02-28T21:14:25.339Z,24.85
2023-02-28T21:16:58.236Z,23.00
2023-02-28T21:19:25.421Z,20.08
2023-02-28T21:21:55.225Z,28.35
2023-02-28T21:24:27.596Z,26.38
2023-02-28T21:26:57.221Z,19.95
2023-02-28T21:29:24.052Z,19.25
2023-02-28T21:31:52.525Z,22.90
2023-02-28T21:34:19.444Z,22.35
2023-02-28T21:36:47.143Z,41.13
2023-02-28T21:39:22.600Z,62.35
2023-02-28T21:41:56.061Z,62.40
2023-02-28T21:44:22.881Z,76.47
2023-02-28T21:46:56.056Z,51.95
2023-02-28T21:49:26.237Z,26.23
2023-02-28T21:51:54.081Z,24.05
2023-02-28T21:54:34.230Z,21.65
2023-02-28T21:57:07.053Z,32.83
2023-02-28T21:59:34.029Z,25.73
2023-02-28T22:02:00.920Z,21.42
2023-02-28T22:04:27.821Z,27.40
2023-02-28T22:06:58.916Z,66.53
2023-02-28T22:09:25.635Z,105.07
2023-02-28T22:11:54.731Z,174.35
2023-02-28T22:14:21.926Z,173.32
2023-02-28T22:16:56.028Z,176.15
2023-02-28T22:19:29.266Z,223.77
2023-02-28T22:21:56.050Z,192.82
2023-02-28T22:24:28.476Z,89.22
2023-02-28T22:26:55.542Z,72.28
2023-02-28T22:29:25.383Z,61.95
2023-02-28T22:31:52.989Z,34.17
2023-02-28T22:34:20.752Z,42.80
2023-02-28T22:36:50.334Z,34.00
2023-02-28T22:39:20.533Z,25.67
2023-02-28T22:41:48.022Z,40.13
2023-02-28T22:44:16.474Z,45.17
2023-02-28T22:46:45.604Z,39.92
2023-02-28T22:49:12.287Z,34.13
2023-02-28T22:51:39.232Z,30.25
2023-02-28T22:54:11.429Z,31.23
2023-02-28T22:56:38.262Z,25.30
2023-02-28T22:59:07.521Z,29.05
2023-02-28T23:01:34.483Z,24.25
2023-02-28T23:04:02.320Z,28.98
2023-02-28T23:06:30.680Z,25.02
2023-02-28T23:09:01.388Z,29.42
2023-02-28T23:11:32.215Z,21.38
2023-02-28T23:14:01.588Z,27.95
2023-02-28T23:16:40.832Z,22.98
2023-02-28T23:19:17.277Z,18.85
2023-02-28T23:21:46.337Z,23.23
2023-02-28T23:24:15.678Z,21.52
2023-02-28T23:26:48.389Z,21.73
2023-02-28T23:29:16.951Z,23.42
2023-02-28T23:31:47.400Z,26.00
2023-02-28T23:34:16.496Z,25.63
2023-02-28T23:36:45.487Z,23.60
2023-02-28T23:39:23.311Z,22.73
2023-02-28T23:41:55.611Z,19.80
2023-02-28T23:44:25.081Z,24.80
2023-02-28T23:46:54.043Z,16.67
2023-02-28T23:49:23.906Z,19.88
2023-02-28T23:51:54.790Z,18.35
2023-02-28T23:54:21.690Z,22.38
2023-02-28T23:56:48.514Z,16.60
2023-02-28T23:59:15.306Z,20.27
